aviador You're here:

KHSI Decoded Metar

HASTINGS in NE, USA
Report Time2017-08-22 21:53:00
UTC Time2017-08-22 22:25:33
Flight Rules vfr VFR
WindCalm
Visibility9999 m
Phenomena:N/A
Clouds:N/A
Expected CloudBase > 5,600 ft AGL from Temp-Dew spread
CeilingNone
Temp24°C (ISA +13)
Dew Point10°C (41% RH)
QNH1023 hPa
Density Alt3,261 ft
Elevation1,939 ft
Report Wrong Elevation
Raw Report
KHSI 222153Z AUTO 00000KT 10SM CLR 24/10 A3022 RMK AO2 SLP220
T02440100=

Extra information for KHSI:More info

Metar Taf Metar & Taf Last 4 Metars F.Rules Stats Wind Profile Meteogram Temp Stats Airport Information Weather charts Add Link Nearby VenuesMetar ALERT Operation Metar Decoded Social comments

AIRNAV info for KHSI